Time;durP1;ratioP1;P1;durP2;ratioP2;P2;SDS_P1;SDS_P2;PMS_P1;PMS_P2;Temp;Humidity;BMP_temperature;BMP_pressure;BME280_temperature;BME280_humidity;BME280_pressure;Samples;Min_cycle;Max_cycle;Signal;HPM_P1;HPM_P2
2022/12/09 00:00:51;;;;;;;9.40;5.57;;;;;;;;;;10420030;28;20609;-69
2022/12/09 00:05:52;;;;;;;10.40;5.25;;;;;;;;;;10424395;28;20222;-70
2022/12/09 00:10:53;;;;;;;7.85;4.93;;;;;;;;;;10424030;28;20219;-69
2022/12/09 00:15:54;;;;;;;7.55;4.93;;;;;;;;;;10422174;28;20249;-69
2022/12/09 00:20:55;;;;;;;10.30;5.68;;;;;;;;;;10429726;28;20222;-70
2022/12/09 00:25:56;;;;;;;8.40;6.18;;;;;;;;;;10424763;28;20207;-69
2022/12/09 00:31:01;;;;;;;9.30;5.40;;;;;;;;;;10420091;28;20698;-70
2022/12/09 00:36:06;;;;;;;11.02;5.40;;;;;;;;;;10454504;28;20216;-69
2022/12/09 00:41:07;;;;;;;9.45;5.82;;;;;;;;;;10444590;28;20294;-69
2022/12/09 00:46:08;;;;;;;11.02;5.63;;;;;;;;;;10417159;28;20642;-70
2022/12/09 00:51:12;;;;;;;8.63;4.82;;;;;;;;;;10418573;28;20333;-70
2022/12/09 00:56:13;;;;;;;7.03;5.18;;;;;;;;;;10433950;28;20219;-69
2022/12/09 01:01:14;;;;;;;8.73;4.80;;;;;;;;;;10425381;28;20281;-69
2022/12/09 01:06:20;;;;;;;4.90;4.40;;;;;;;;;;10430046;28;20257;-69
2022/12/09 01:11:22;;;;;;;8.65;5.43;;;;;;;;;;10434594;28;20758;-69
2022/12/09 01:16:25;;;;;;;10.05;5.93;;;;;;;;;;10417836;28;20630;-69
2022/12/09 01:21:26;;;;;;;10.80;5.20;;;;;;;;;;10449278;28;20234;-69
2022/12/09 01:26:28;;;;;;;8.48;4.40;;;;;;;;;;10418112;28;20268;-69
2022/12/09 01:31:30;;;;;;;10.43;5.57;;;;;;;;;;10433104;28;20706;-68
2022/12/09 01:36:31;;;;;;;5.93;4.70;;;;;;;;;;10447098;28;20661;-70
2022/12/09 01:41:32;;;;;;;7.43;4.72;;;;;;;;;;10413781;28;20316;-70
2022/12/09 01:46:33;;;;;;;7.93;4.38;;;;;;;;;;10416093;28;20213;-70
2022/12/09 01:51:35;;;;;;;10.32;4.40;;;;;;;;;;10422069;28;20310;-70
2022/12/09 01:56:36;;;;;;;11.50;4.88;;;;;;;;;;10417907;28;20215;-70
2022/12/09 02:01:41;;;;;;;6.97;4.50;;;;;;;;;;10420251;28;20223;-70
2022/12/09 02:06:43;;;;;;;8.05;3.88;;;;;;;;;;10419141;28;20215;-71
2022/12/09 02:11:52;;;;;;;5.55;3.67;;;;;;;;;;10433704;28;20207;-71
2022/12/09 02:17:12;;;;;;;8.60;4.78;;;;;;;;;;10443999;28;20674;-69
2022/12/09 02:22:17;;;;;;;5.45;4.07;;;;;;;;;;10419264;28;20280;-69
2022/12/09 02:27:25;;;;;;;9.05;4.57;;;;;;;;;;10447712;28;20624;-71
2022/12/09 02:32:35;;;;;;;5.60;4.37;;;;;;;;;;10449699;28;20223;-68
2022/12/09 02:37:59;;;;;;;7.85;4.85;;;;;;;;;;10432741;28;20217;-68
2022/12/09 02:43:03;;;;;;;8.38;4.95;;;;;;;;;;10447782;28;20214;-68
2022/12/09 02:48:05;;;;;;;7.07;3.90;;;;;;;;;;10419768;28;20219;-69
2022/12/09 02:53:09;;;;;;;9.40;3.72;;;;;;;;;;10419335;28;20214;-69
2022/12/09 02:58:11;;;;;;;5.40;3.80;;;;;;;;;;10415062;28;20215;-69
2022/12/09 03:03:14;;;;;;;7.23;4.13;;;;;;;;;;10436272;28;20239;-69
2022/12/09 03:08:24;;;;;;;5.38;3.58;;;;;;;;;;10416334;28;20206;-69
2022/12/09 03:13:45;;;;;;;6.63;4.15;;;;;;;;;;10424701;28;20215;-69
2022/12/09 03:18:50;;;;;;;6.55;4.18;;;;;;;;;;10419245;28;20221;-71
2022/12/09 03:23:53;;;;;;;4.25;3.80;;;;;;;;;;10423499;28;20717;-69
2022/12/09 03:28:55;;;;;;;5.43;3.05;;;;;;;;;;10423823;28;20215;-67
2022/12/09 03:33:58;;;;;;;11.25;4.15;;;;;;;;;;10450425;28;20223;-69
2022/12/09 03:38:59;;;;;;;8.45;4.50;;;;;;;;;;10455512;28;20857;-68
2022/12/09 03:44:08;;;;;;;9.90;4.95;;;;;;;;;;10420493;28;20250;-69
2022/12/09 03:49:09;;;;;;;14.00;4.57;;;;;;;;;;10421737;28;20222;-69
2022/12/09 03:54:22;;;;;;;12.32;5.72;;;;;;;;;;10419949;28;20219;-69
2022/12/09 03:59:24;;;;;;;9.43;5.53;;;;;;;;;;10420374;28;20217;-71
2022/12/09 04:04:26;;;;;;;13.32;5.13;;;;;;;;;;10427520;28;20376;-69
2022/12/09 04:09:28;;;;;;;11.93;4.90;;;;;;;;;;10427398;28;20222;-69
2022/12/09 04:14:29;;;;;;;11.65;5.20;;;;;;;;;;10458211;28;20226;-69
2022/12/09 04:19:30;;;;;;;11.17;4.50;;;;;;;;;;10422156;28;20701;-69
2022/12/09 04:24:34;;;;;;;8.60;4.60;;;;;;;;;;10425140;28;20238;-69
2022/12/09 04:29:35;;;;;;;7.85;4.35;;;;;;;;;;10422737;28;20236;-69
2022/12/09 04:34:36;;;;;;;11.50;4.90;;;;;;;;;;10449524;28;20978;-69
2022/12/09 04:39:37;;;;;;;8.13;4.20;;;;;;;;;;10426049;28;20215;-68
2022/12/09 04:44:38;;;;;;;10.90;4.70;;;;;;;;;;10420383;28;20253;-68
2022/12/09 04:49:39;;;;;;;10.77;4.88;;;;;;;;;;10416582;28;20273;-68
2022/12/09 04:54:40;;;;;;;12.73;4.70;;;;;;;;;;10417545;28;20219;-68
2022/12/09 04:59:41;;;;;;;24.83;6.17;;;;;;;;;;10422362;28;20236;-68
2022/12/09 05:04:45;;;;;;;12.50;6.43;;;;;;;;;;10416177;28;20698;-68
2022/12/09 05:09:46;;;;;;;13.33;6.27;;;;;;;;;;10419346;28;20203;-67
2022/12/09 05:14:47;;;;;;;21.00;6.93;;;;;;;;;;10421541;28;20666;-68
2022/12/09 05:19:48;;;;;;;18.45;7.43;;;;;;;;;;10419354;28;20205;-68
2022/12/09 05:24:49;;;;;;;14.02;6.75;;;;;;;;;;10419120;28;20235;-68
2022/12/09 05:29:50;;;;;;;16.63;7.20;;;;;;;;;;10413277;28;20215;-69
2022/12/09 05:34:52;;;;;;;17.57;7.90;;;;;;;;;;10409018;28;20306;-68
2022/12/09 05:39:53;;;;;;;23.23;6.75;;;;;;;;;;10409931;28;20765;-68
2022/12/09 05:44:54;;;;;;;12.60;6.50;;;;;;;;;;10411194;28;20214;-69
2022/12/09 05:49:55;;;;;;;17.60;7.53;;;;;;;;;;10445339;28;20302;-69
2022/12/09 05:54:57;;;;;;;18.33;7.73;;;;;;;;;;10412149;28;20224;-69
2022/12/09 05:59:58;;;;;;;18.50;7.83;;;;;;;;;;10420339;28;20686;-69
2022/12/09 06:04:59;;;;;;;13.90;7.23;;;;;;;;;;10417822;28;20722;-69
2022/12/09 06:10:00;;;;;;;16.03;7.50;;;;;;;;;;10417997;28;20338;-69
2022/12/09 06:15:01;;;;;;;13.02;6.75;;;;;;;;;;10435338;28;20222;-69
2022/12/09 06:20:02;;;;;;;15.40;6.95;;;;;;;;;;10417762;28;20218;-69
2022/12/09 06:25:04;;;;;;;16.75;8.13;;;;;;;;;;10413462;28;20230;-69
2022/12/09 06:30:05;;;;;;;21.65;8.65;;;;;;;;;;10416543;28;20176;-70
2022/12/09 06:35:06;;;;;;;16.60;7.50;;;;;;;;;;10419708;28;20264;-70
2022/12/09 06:40:08;;;;;;;18.38;7.45;;;;;;;;;;10421968;28;20182;-70
2022/12/09 06:45:09;;;;;;;15.80;8.23;;;;;;;;;;10422708;28;20214;-70
2022/12/09 06:50:10;;;;;;;17.27;7.85;;;;;;;;;;10422932;28;20199;-70
2022/12/09 06:55:11;;;;;;;19.38;8.73;;;;;;;;;;10442250;28;20209;-70
2022/12/09 07:00:13;;;;;;;18.63;7.60;;;;;;;;;;10427964;28;20308;-70
2022/12/09 07:05:14;;;;;;;15.93;6.80;;;;;;;;;;10425363;28;20209;-70
2022/12/09 07:10:15;;;;;;;16.42;7.90;;;;;;;;;;10421824;28;20182;-69
2022/12/09 07:15:16;;;;;;;21.27;7.05;;;;;;;;;;10421728;28;20206;-69
2022/12/09 07:20:17;;;;;;;24.40;9.82;;;;;;;;;;10418859;28;20211;-68
2022/12/09 07:25:18;;;;;;;23.53;8.80;;;;;;;;;;10421640;28;20778;-68
2022/12/09 07:30:19;;;;;;;18.98;8.15;;;;;;;;;;10417048;28;20210;-67
2022/12/09 07:35:21;;;;;;;21.53;8.10;;;;;;;;;;10420293;28;20278;-68
2022/12/09 07:40:22;;;;;;;53.65;9.20;;;;;;;;;;10418862;28;21852;-68
2022/12/09 07:45:23;;;;;;;30.83;11.18;;;;;;;;;;10424789;28;20221;-68
2022/12/09 07:50:24;;;;;;;11.45;6.28;;;;;;;;;;10423686;28;20215;-69
2022/12/09 07:55:25;;;;;;;25.70;7.22;;;;;;;;;;10421554;28;20909;-69
2022/12/09 08:00:26;;;;;;;26.00;6.40;;;;;;;;;;10418936;28;20240;-69
2022/12/09 08:05:27;;;;;;;13.02;6.32;;;;;;;;;;10420149;28;20238;-67
2022/12/09 08:10:29;;;;;;;13.57;6.40;;;;;;;;;;10419391;28;20214;-69
2022/12/09 08:15:30;;;;;;;17.17;6.63;;;;;;;;;;10420068;28;20675;-69
2022/12/09 08:20:31;;;;;;;14.52;6.13;;;;;;;;;;10419560;28;20309;-70
2022/12/09 08:25:32;;;;;;;11.32;6.38;;;;;;;;;;10421136;28;20280;-70
2022/12/09 08:30:33;;;;;;;9.15;5.78;;;;;;;;;;10419993;28;20922;-70
2022/12/09 08:35:36;;;;;;;25.05;7.15;;;;;;;;;;10421772;28;20217;-70
2022/12/09 08:40:37;;;;;;;33.30;7.28;;;;;;;;;;10445786;28;20721;-70
2022/12/09 08:45:39;;;;;;;16.63;6.70;;;;;;;;;;10423148;28;20238;-69
2022/12/09 08:50:41;;;;;;;14.88;6.63;;;;;;;;;;10416787;28;21019;-70
2022/12/09 08:55:42;;;;;;;21.70;8.40;;;;;;;;;;10422609;28;20219;-70
2022/12/09 09:00:43;;;;;;;15.45;5.70;;;;;;;;;;10420818;28;20628;-70
2022/12/09 09:05:44;;;;;;;18.95;7.43;;;;;;;;;;10416747;28;20231;-71
2022/12/09 09:10:45;;;;;;;19.58;7.85;;;;;;;;;;10416872;28;20234;-71
2022/12/09 09:15:46;;;;;;;28.15;9.15;;;;;;;;;;10420655;28;20242;-72
2022/12/09 09:20:50;;;;;;;36.25;9.35;;;;;;;;;;10426921;28;20218;-72
2022/12/09 09:25:52;;;;;;;26.08;9.13;;;;;;;;;;10464528;28;20717;-80
2022/12/09 09:31:00;;;;;;;26.02;9.60;;;;;;;;;;10427295;28;20217;-87
2022/12/09 09:36:02;;;;;;;23.15;9.45;;;;;;;;;;10437000;28;20346;-83
2022/12/09 09:41:07;;;;;;;22.30;7.63;;;;;;;;;;10425857;28;20645;-85
2022/12/09 09:46:09;;;;;;;18.95;7.93;;;;;;;;;;10424897;28;20236;-84
2022/12/09 09:51:14;;;;;;;22.10;7.80;;;;;;;;;;10424907;28;20222;-85
2022/12/09 09:56:23;;;;;;;21.00;8.00;;;;;;;;;;10440359;28;20695;-84
2022/12/09 10:01:27;;;;;;;19.33;8.15;;;;;;;;;;10421762;28;20304;-85
2022/12/09 10:06:34;;;;;;;18.25;7.82;;;;;;;;;;10422981;28;20210;-87
2022/12/09 10:11:38;;;;;;;20.42;9.63;;;;;;;;;;10422380;28;20218;-74
2022/12/09 10:16:44;;;;;;;16.90;8.50;;;;;;;;;;10424533;28;20219;-73
2022/12/09 10:21:47;;;;;;;16.20;8.18;;;;;;;;;;10423330;28;20264;-72
2022/12/09 10:26:54;;;;;;;18.45;7.97;;;;;;;;;;10419442;28;20224;-74
2022/12/09 10:31:55;;;;;;;17.80;8.20;;;;;;;;;;10417623;28;20281;-81
2022/12/09 10:36:56;;;;;;;17.75;7.40;;;;;;;;;;10431481;28;20237;-80
2022/12/09 10:47:24;;;;;;;19.52;8.30;;;;;;;;;;10422680;28;20215;-75
2022/12/09 10:52:28;;;;;;;21.75;11.68;;;;;;;;;;10426347;28;20214;-75
2022/12/09 10:57:30;;;;;;;19.63;8.77;;;;;;;;;;10421847;28;20219;-74
2022/12/09 11:02:31;;;;;;;17.90;8.40;;;;;;;;;;10415288;28;20221;-73
2022/12/09 11:07:33;;;;;;;18.45;8.40;;;;;;;;;;10446225;28;20238;-74
2022/12/09 11:12:38;;;;;;;11.65;6.60;;;;;;;;;;10430426;28;20223;-74
2022/12/09 11:17:41;;;;;;;20.05;8.20;;;;;;;;;;10432428;28;20595;-74
2022/12/09 11:22:43;;;;;;;16.90;7.82;;;;;;;;;;10420637;28;20235;-73
2022/12/09 11:27:55;;;;;;;15.57;6.50;;;;;;;;;;10422158;28;20211;-73
2022/12/09 11:33:01;;;;;;;13.02;6.70;;;;;;;;;;10418570;28;20242;-74
2022/12/09 11:38:12;;;;;;;10.98;5.95;;;;;;;;;;10457029;28;20242;-76
2022/12/09 11:43:13;;;;;;;9.88;5.18;;;;;;;;;;10430499;28;20222;-73
2022/12/09 11:48:19;;;;;;;13.82;6.60;;;;;;;;;;10432791;28;20199;-75
2022/12/09 11:53:26;;;;;;;12.32;6.28;;;;;;;;;;10436505;28;20222;-75
2022/12/09 11:58:30;;;;;;;10.50;6.00;;;;;;;;;;10440552;28;20214;-74
2022/12/09 12:03:36;;;;;;;11.23;6.15;;;;;;;;;;10428677;28;20306;-76
2022/12/09 12:08:46;;;;;;;14.98;7.13;;;;;;;;;;10452279;28;20211;-76
2022/12/09 12:13:49;;;;;;;14.38;7.10;;;;;;;;;;10440462;28;20292;-78
2022/12/09 12:19:13;;;;;;;11.88;6.20;;;;;;;;;;10429848;28;20323;-75
2022/12/09 12:24:20;;;;;;;19.23;8.73;;;;;;;;;;10459012;28;20279;-75
2022/12/09 12:29:35;;;;;;;11.23;6.60;;;;;;;;;;10418661;28;20831;-73
2022/12/09 12:34:39;;;;;;;18.60;8.10;;;;;;;;;;10425842;28;20222;-74
2022/12/09 12:39:43;;;;;;;14.68;7.63;;;;;;;;;;10430178;28;20640;-73
2022/12/09 12:50:21;;;;;;;13.45;7.13;;;;;;;;;;10416381;28;20586;-73
2022/12/09 12:55:37;;;;;;;10.70;6.18;;;;;;;;;;10427382;28;20244;-75
2022/12/09 13:00:49;;;;;;;8.77;5.15;;;;;;;;;;10421073;28;20250;-75
2022/12/09 13:05:51;;;;;;;8.65;5.82;;;;;;;;;;10430649;28;20210;-76
2022/12/09 13:10:54;;;;;;;7.95;5.30;;;;;;;;;;10431015;28;20249;-75
2022/12/09 13:16:02;;;;;;;6.35;4.88;;;;;;;;;;10425974;28;20214;-75
2022/12/09 13:21:04;;;;;;;7.57;4.90;;;;;;;;;;10437338;28;20785;-77
2022/12/09 13:26:25;;;;;;;9.55;4.20;;;;;;;;;;10460527;28;20235;-81
2022/12/09 13:31:29;;;;;;;13.23;6.15;;;;;;;;;;10434989;28;20602;-76
2022/12/09 13:36:39;;;;;;;13.00;6.30;;;;;;;;;;10421572;28;20215;-77
2022/12/09 13:47:20;;;;;;;16.70;7.30;;;;;;;;;;10422534;28;20206;-76
2022/12/09 13:52:40;;;;;;;13.18;6.20;;;;;;;;;;10417115;28;20600;-76
2022/12/09 13:57:47;;;;;;;5.72;4.32;;;;;;;;;;10409287;28;20793;-76
2022/12/09 14:02:58;;;;;;;10.80;5.13;;;;;;;;;;10424660;28;20223;-76
2022/12/09 14:08:02;;;;;;;10.63;4.88;;;;;;;;;;10448378;28;21122;-76
2022/12/09 14:13:18;;;;;;;7.93;5.15;;;;;;;;;;10438422;28;20207;-77
2022/12/09 14:18:31;;;;;;;10.15;6.07;;;;;;;;;;10435434;28;20214;-76
2022/12/09 14:23:32;;;;;;;12.05;6.55;;;;;;;;;;10439027;28;20234;-76
2022/12/09 14:28:33;;;;;;;16.33;7.55;;;;;;;;;;10441630;28;20769;-76
2022/12/09 14:33:35;;;;;;;15.85;7.05;;;;;;;;;;10432603;28;20273;-76
2022/12/09 14:38:53;;;;;;;14.55;7.43;;;;;;;;;;10470305;28;20211;-75
2022/12/09 14:44:02;;;;;;;17.50;8.45;;;;;;;;;;10413029;28;20215;-76
2022/12/09 14:49:16;;;;;;;13.05;7.00;;;;;;;;;;10396282;28;20235;-75
2022/12/09 14:54:17;;;;;;;16.52;8.25;;;;;;;;;;10420795;28;20301;-76
2022/12/09 14:59:20;;;;;;;13.98;6.78;;;;;;;;;;10477802;28;20218;-76
2022/12/09 15:04:32;;;;;;;11.70;5.68;;;;;;;;;;10446175;28;20683;-77
2022/12/09 15:09:33;;;;;;;15.98;6.85;;;;;;;;;;10443130;28;20207;-76
2022/12/09 15:14:35;;;;;;;10.30;6.00;;;;;;;;;;10444998;28;20211;-76
2022/12/09 15:19:36;;;;;;;12.95;6.47;;;;;;;;;;10430605;28;20222;-75
2022/12/09 15:24:40;;;;;;;12.90;5.75;;;;;;;;;;10427570;28;20656;-77
2022/12/09 15:29:42;;;;;;;14.68;6.20;;;;;;;;;;10430779;28;20227;-74
2022/12/09 15:34:44;;;;;;;16.65;7.20;;;;;;;;;;10433212;28;20690;-75
2022/12/09 15:39:52;;;;;;;13.48;6.78;;;;;;;;;;10433927;28;20234;-80
2022/12/09 15:45:00;;;;;;;14.43;6.15;;;;;;;;;;10425474;28;20219;-82
2022/12/09 15:50:17;;;;;;;10.77;6.05;;;;;;;;;;10424437;28;20215;-84
2022/12/09 15:55:19;;;;;;;10.07;5.38;;;;;;;;;;10423315;28;20215;-78
2022/12/09 16:00:21;;;;;;;10.87;5.23;;;;;;;;;;10427849;28;20191;-72
2022/12/09 16:05:23;;;;;;;16.67;6.45;;;;;;;;;;10420317;28;20239;-73
2022/12/09 16:10:27;;;;;;;12.48;5.10;;;;;;;;;;10428720;28;21087;-74
2022/12/09 16:15:45;;;;;;;11.50;5.30;;;;;;;;;;10421779;28;20218;-73
2022/12/09 16:21:01;;;;;;;9.23;6.55;;;;;;;;;;10426675;28;20298;-74
2022/12/09 16:26:02;;;;;;;14.18;6.68;;;;;;;;;;10431253;28;20728;-76
2022/12/09 16:31:16;;;;;;;15.32;6.30;;;;;;;;;;10410745;28;20222;-74
2022/12/09 16:36:19;;;;;;;10.85;5.30;;;;;;;;;;10428250;28;20241;-78
2022/12/09 16:41:31;;;;;;;9.82;5.60;;;;;;;;;;10433105;28;20218;-77
2022/12/09 16:46:35;;;;;;;13.80;5.93;;;;;;;;;;10445437;28;20241;-78
2022/12/09 16:51:37;;;;;;;11.13;6.75;;;;;;;;;;10434823;28;20215;-77
2022/12/09 16:56:38;;;;;;;12.10;6.53;;;;;;;;;;10438770;28;20210;-78
2022/12/09 17:01:40;;;;;;;18.38;7.90;;;;;;;;;;10446755;28;20219;-77
2022/12/09 17:06:42;;;;;;;11.90;5.10;;;;;;;;;;10452376;28;20219;-78
2022/12/09 17:11:43;;;;;;;10.50;5.18;;;;;;;;;;10434645;28;20214;-79
2022/12/09 17:16:44;;;;;;;11.65;5.55;;;;;;;;;;10435489;28;20704;-76
2022/12/09 17:21:46;;;;;;;8.50;5.27;;;;;;;;;;10441720;28;20675;-77
2022/12/09 17:26:47;;;;;;;11.55;5.30;;;;;;;;;;10419597;28;20215;-79
2022/12/09 17:31:50;;;;;;;16.38;6.35;;;;;;;;;;10419119;28;20727;-77
2022/12/09 17:36:51;;;;;;;9.88;5.57;;;;;;;;;;10412614;28;20253;-78
2022/12/09 17:41:52;;;;;;;16.67;7.32;;;;;;;;;;10429483;28;20613;-75
2022/12/09 17:46:53;;;;;;;18.00;7.78;;;;;;;;;;10436387;28;21227;-80
2022/12/09 17:51:54;;;;;;;17.37;6.10;;;;;;;;;;10425477;28;20207;-75
2022/12/09 17:56:55;;;;;;;17.08;7.38;;;;;;;;;;10422641;28;20215;-76
2022/12/09 18:01:57;;;;;;;13.60;7.20;;;;;;;;;;10451035;28;20241;-80
2022/12/09 18:06:58;;;;;;;18.58;8.15;;;;;;;;;;10426920;28;20249;-79
2022/12/09 18:11:59;;;;;;;18.70;8.07;;;;;;;;;;10430635;28;20226;-76
2022/12/09 18:17:00;;;;;;;18.95;8.23;;;;;;;;;;10424223;28;20215;-78
2022/12/09 18:22:01;;;;;;;20.38;8.57;;;;;;;;;;10420517;28;20706;-76
2022/12/09 18:27:03;;;;;;;18.80;7.70;;;;;;;;;;10443440;28;20237;-76
2022/12/09 18:32:05;;;;;;;32.63;9.63;;;;;;;;;;10425966;28;20203;-77
2022/12/09 18:37:06;;;;;;;24.30;8.25;;;;;;;;;;10423995;28;20215;-73
2022/12/09 18:42:07;;;;;;;24.93;8.97;;;;;;;;;;10425616;28;20263;-74
2022/12/09 18:47:09;;;;;;;16.55;7.75;;;;;;;;;;10411528;28;20208;-74
2022/12/09 18:52:10;;;;;;;22.80;8.27;;;;;;;;;;10408023;28;20302;-74
2022/12/09 18:57:11;;;;;;;18.60;8.68;;;;;;;;;;10424030;28;20218;-77
2022/12/09 19:02:13;;;;;;;19.73;8.48;;;;;;;;;;10431191;28;20219;-71
2022/12/09 19:07:15;;;;;;;19.08;7.55;;;;;;;;;;10425975;28;20221;-83
2022/12/09 19:12:16;;;;;;;20.55;8.02;;;;;;;;;;10455437;28;20218;-83
2022/12/09 19:17:17;;;;;;;22.15;7.40;;;;;;;;;;10437842;28;20241;-83
2022/12/09 19:22:19;;;;;;;17.23;6.95;;;;;;;;;;10426381;28;20269;-80
2022/12/09 19:27:20;;;;;;;17.20;6.88;;;;;;;;;;10435555;28;20286;-87
2022/12/09 19:32:21;;;;;;;13.53;6.60;;;;;;;;;;10426732;28;20225;-82
2022/12/09 19:37:22;;;;;;;11.80;6.40;;;;;;;;;;10431031;28;20582;-76
2022/12/09 19:42:23;;;;;;;14.37;6.27;;;;;;;;;;10429474;28;20228;-84
2022/12/09 19:47:24;;;;;;;17.40;7.53;;;;;;;;;;10439148;28;20690;-79
2022/12/09 19:52:26;;;;;;;15.95;7.07;;;;;;;;;;10427039;28;20828;-75
2022/12/09 19:57:27;;;;;;;17.48;7.68;;;;;;;;;;10430387;28;20234;-74
2022/12/09 20:02:28;;;;;;;17.55;6.63;;;;;;;;;;10416484;28;20223;-73
2022/12/09 20:07:29;;;;;;;17.03;7.33;;;;;;;;;;10412350;28;20250;-74
2022/12/09 20:12:31;;;;;;;14.83;7.17;;;;;;;;;;10423444;28;20225;-75
2022/12/09 20:17:32;;;;;;;21.73;8.73;;;;;;;;;;10408365;28;20203;-73
2022/12/09 20:22:33;;;;;;;21.50;7.60;;;;;;;;;;10425551;28;20644;-74
2022/12/09 20:27:34;;;;;;;26.70;8.07;;;;;;;;;;10423196;28;20330;-74
2022/12/09 20:32:35;;;;;;;20.90;9.93;;;;;;;;;;10420059;28;20211;-75
2022/12/09 20:37:36;;;;;;;26.25;9.55;;;;;;;;;;10417862;28;20218;-78
2022/12/09 20:42:38;;;;;;;21.23;8.75;;;;;;;;;;10417640;28;20301;-76
2022/12/09 20:47:39;;;;;;;23.27;8.75;;;;;;;;;;10413479;28;20252;-79
2022/12/09 20:52:40;;;;;;;24.08;9.77;;;;;;;;;;10420341;28;20226;-78
2022/12/09 20:57:41;;;;;;;26.50;9.45;;;;;;;;;;10432948;28;20979;-80
2022/12/09 21:02:42;;;;;;;23.52;8.90;;;;;;;;;;10422760;28;20272;-79
2022/12/09 21:07:43;;;;;;;23.42;8.50;;;;;;;;;;10427883;28;20338;-80
2022/12/09 21:12:44;;;;;;;23.97;8.33;;;;;;;;;;10421664;28;20217;-79
2022/12/09 21:17:49;;;;;;;18.67;8.52;;;;;;;;;;10424104;28;20267;-79
2022/12/09 21:22:50;;;;;;;24.93;9.50;;;;;;;;;;10436017;28;20230;-79
2022/12/09 21:27:51;;;;;;;26.13;10.45;;;;;;;;;;10423194;28;20750;-79
2022/12/09 21:32:53;;;;;;;21.20;9.80;;;;;;;;;;10428418;28;20235;-79
2022/12/09 21:37:54;;;;;;;24.92;11.52;;;;;;;;;;10424317;28;20215;-78
2022/12/09 21:42:55;;;;;;;19.60;9.57;;;;;;;;;;10423448;28;20214;-78
2022/12/09 21:47:56;;;;;;;27.98;9.55;;;;;;;;;;10444108;28;20206;-78
2022/12/09 21:52:57;;;;;;;16.63;7.60;;;;;;;;;;10425495;28;20218;-77
2022/12/09 21:57:58;;;;;;;22.20;8.63;;;;;;;;;;10427332;28;20234;-77
2022/12/09 22:02:59;;;;;;;22.40;9.30;;;;;;;;;;10427872;28;20218;-76
2022/12/09 22:08:01;;;;;;;18.58;8.25;;;;;;;;;;10425400;28;20218;-77
2022/12/09 22:13:02;;;;;;;22.77;9.57;;;;;;;;;;10430130;28;20303;-78
2022/12/09 22:18:03;;;;;;;20.38;10.07;;;;;;;;;;10460485;28;20210;-78
2022/12/09 22:23:04;;;;;;;22.00;9.63;;;;;;;;;;10421340;28;20218;-78
2022/12/09 22:28:06;;;;;;;24.50;8.45;;;;;;;;;;10415025;28;20220;-79
2022/12/09 22:33:07;;;;;;;22.55;9.55;;;;;;;;;;10421761;28;20215;-79
2022/12/09 22:38:08;;;;;;;21.48;8.70;;;;;;;;;;10418076;28;20210;-78
2022/12/09 22:43:09;;;;;;;16.70;8.48;;;;;;;;;;10415255;28;20222;-79
2022/12/09 22:48:11;;;;;;;19.20;7.17;;;;;;;;;;10419385;28;20789;-78
2022/12/09 22:53:12;;;;;;;15.10;7.13;;;;;;;;;;10423445;28;20260;-79
2022/12/09 22:58:13;;;;;;;16.33;6.93;;;;;;;;;;10451021;28;20218;-83
2022/12/09 23:03:16;;;;;;;11.67;6.57;;;;;;;;;;10429152;28;20253;-79
2022/12/09 23:08:17;;;;;;;14.80;6.93;;;;;;;;;;10424036;28;20221;-78
2022/12/09 23:13:19;;;;;;;15.45;6.35;;;;;;;;;;10425267;28;20246;-78
2022/12/09 23:18:20;;;;;;;12.88;6.45;;;;;;;;;;10427236;28;20320;-78
2022/12/09 23:23:21;;;;;;;20.37;7.47;;;;;;;;;;10421595;28;20218;-78
2022/12/09 23:28:23;;;;;;;14.52;6.45;;;;;;;;;;10400935;28;20202;-79
2022/12/09 23:33:24;;;;;;;16.80;7.72;;;;;;;;;;10419484;28;20253;-79
2022/12/09 23:38:25;;;;;;;19.58;8.10;;;;;;;;;;10430481;28;20211;-78
2022/12/09 23:43:29;;;;;;;16.58;7.53;;;;;;;;;;10431264;28;20234;-78
2022/12/09 23:48:30;;;;;;;17.30;7.93;;;;;;;;;;10431109;28;20207;-78
2022/12/09 23:53:31;;;;;;;18.50;8.37;;;;;;;;;;10418399;28;20711;-80
2022/12/09 23:58:33;;;;;;;25.45;10.27;;;;;;;;;;10426350;28;20890;-79
